ROT225 LROP-LKPR
Flight info
| Callsign | ROT225 |
|---|---|
| Flight time | N/A |
| Altitude | 36000 |
| Route | SOKRU1M/26R SOKRU DCT OXDOC DCT BUDOP DCT PATAK DCT LALES DCT TUMKA DCT VLM |
| Aircraft | B738/M-SDE2E3FGHIRWXY/LB1 |
Departure
| Time | N/A |
|---|---|
| Airport | Bucharest Henri Coandă International Airport (LROP) |
Arrival
| Time | 2026-05-05 19:39 |
|---|---|
| Airport | Václav Havel Airport Prague (LKPR) |
| Time | Latitude | Longitude | Altitude | Speed | Heading |
|---|---|---|---|---|---|
| 2026-05-05 18:50 | 47.51489 | 20.10724 | 35878 ft | 431 kts | 310° |
| 2026-05-05 18:50 | 47.53455 | 20.07333 | 35883 ft | 430 kts | 310° |
| 2026-05-05 18:50 | 47.57317 | 20.00660 | 35891 ft | 431 kts | 309° |
| 2026-05-05 18:51 | 47.61227 | 19.93886 | 35892 ft | 432 kts | 309° |
| 2026-05-05 18:51 | 47.65096 | 19.87169 | 35893 ft | 431 kts | 309° |
| 2026-05-05 18:52 | 47.68975 | 19.80417 | 35892 ft | 431 kts | 309° |
| 2026-05-05 18:52 | 47.72883 | 19.73596 | 35891 ft | 431 kts | 309° |
| 2026-05-05 18:53 | 47.76781 | 19.66774 | 35895 ft | 431 kts | 309° |
| 2026-05-05 18:53 | 47.80652 | 19.59985 | 35894 ft | 431 kts | 309° |
| 2026-05-05 18:54 | 47.84535 | 19.53158 | 35893 ft | 431 kts | 309° |
| 2026-05-05 18:54 | 47.88411 | 19.46325 | 35897 ft | 432 kts | 309° |
| 2026-05-05 18:55 | 47.92280 | 19.39486 | 35895 ft | 431 kts | 309° |
| 2026-05-05 18:55 | 47.96120 | 19.32682 | 35894 ft | 432 kts | 309° |
| 2026-05-05 18:56 | 47.99992 | 19.25802 | 35890 ft | 431 kts | 309° |
| 2026-05-05 18:56 | 48.03864 | 19.18906 | 35892 ft | 431 kts | 309° |
| 2026-05-05 18:57 | 48.07725 | 19.12014 | 35897 ft | 430 kts | 309° |
| 2026-05-05 18:57 | 48.11557 | 19.05268 | 35896 ft | 432 kts | 309° |
| 2026-05-05 18:58 | 48.15523 | 18.98350 | 35896 ft | 432 kts | 309° |
| 2026-05-05 18:58 | 48.19422 | 18.91534 | 35886 ft | 432 kts | 309° |
| 2026-05-05 18:59 | 48.23327 | 18.84679 | 35877 ft | 432 kts | 309° |
| 2026-05-05 18:59 | 48.27189 | 18.77873 | 35868 ft | 432 kts | 309° |
| 2026-05-05 19:00 | 48.31116 | 18.70932 | 35862 ft | 432 kts | 309° |
| 2026-05-05 19:00 | 48.34979 | 18.64085 | 35861 ft | 432 kts | 309° |
| 2026-05-05 19:01 | 48.38885 | 18.57143 | 35862 ft | 432 kts | 309° |
| 2026-05-05 19:01 | 48.42770 | 18.50219 | 35859 ft | 432 kts | 309° |
| 2026-05-05 19:02 | 48.46657 | 18.43273 | 35858 ft | 433 kts | 309° |
| 2026-05-05 19:02 | 48.50526 | 18.36343 | 35857 ft | 433 kts | 309° |
| 2026-05-05 19:03 | 48.54406 | 18.29374 | 35850 ft | 433 kts | 309° |
| 2026-05-05 19:03 | 48.58277 | 18.22403 | 35838 ft | 433 kts | 309° |
| 2026-05-05 19:04 | 48.62126 | 18.15454 | 35844 ft | 433 kts | 309° |
| 2026-05-05 19:04 | 48.65952 | 18.08529 | 35852 ft | 433 kts | 309° |
| 2026-05-05 19:05 | 48.69838 | 18.01477 | 35860 ft | 432 kts | 309° |
| 2026-05-05 19:05 | 48.73671 | 17.94501 | 35867 ft | 433 kts | 309° |
| 2026-05-05 19:06 | 48.77531 | 17.87460 | 35859 ft | 433 kts | 309° |
| 2026-05-05 19:06 | 48.81382 | 17.80415 | 35842 ft | 433 kts | 309° |
| 2026-05-05 19:07 | 48.85150 | 17.73312 | 35835 ft | 433 kts | 306° |
| 2026-05-05 19:07 | 48.88316 | 17.65524 | 35820 ft | 431 kts | 297° |
| 2026-05-05 19:08 | 48.90993 | 17.57317 | 35815 ft | 432 kts | 295° |
| 2026-05-05 19:08 | 48.93565 | 17.49046 | 35809 ft | 431 kts | 295° |
| 2026-05-05 19:09 | 48.96105 | 17.40869 | 35797 ft | 430 kts | 295° |
| 2026-05-05 19:09 | 48.98682 | 17.32614 | 35793 ft | 430 kts | 295° |
| 2026-05-05 19:10 | 49.01247 | 17.24407 | 35792 ft | 431 kts | 295° |
| 2026-05-05 19:10 | 49.03831 | 17.16136 | 35778 ft | 429 kts | 295° |
| 2026-05-05 19:11 | 49.06383 | 17.07944 | 35758 ft | 429 kts | 295° |
| 2026-05-05 19:11 | 49.08946 | 16.99688 | 35757 ft | 431 kts | 295° |
| 2026-05-05 19:12 | 49.11509 | 16.91403 | 35764 ft | 429 kts | 295° |
| 2026-05-05 19:12 | 49.14046 | 16.83178 | 35765 ft | 431 kts | 295° |
| 2026-05-05 19:13 | 49.16604 | 16.74864 | 35761 ft | 430 kts | 295° |
| 2026-05-05 19:13 | 49.19147 | 16.66561 | 35760 ft | 430 kts | 295° |
| 2026-05-05 19:14 | 49.21669 | 16.58301 | 35759 ft | 430 kts | 294° |
| 2026-05-05 19:14 | 49.24200 | 16.49985 | 35755 ft | 430 kts | 295° |
| 2026-05-05 19:15 | 49.26714 | 16.41699 | 35753 ft | 430 kts | 294° |
| 2026-05-05 19:15 | 49.29241 | 16.33346 | 35764 ft | 431 kts | 294° |
| 2026-05-05 19:16 | 49.31752 | 16.25017 | 35758 ft | 431 kts | 294° |
| 2026-05-05 19:16 | 49.34270 | 16.16631 | 35756 ft | 430 kts | 294° |
| 2026-05-05 19:17 | 49.36752 | 16.08337 | 35752 ft | 431 kts | 294° |
| 2026-05-05 19:17 | 49.39263 | 15.99919 | 35739 ft | 432 kts | 294° |
| 2026-05-05 19:18 | 49.40496 | 15.95778 | 35612 ft | 429 kts | 294° |
| 2026-05-05 19:18 | 49.41769 | 15.91616 | 35253 ft | 424 kts | 295° |
| 2026-05-05 19:18 | 49.43090 | 15.87604 | 34706 ft | 424 kts | 296° |
| 2026-05-05 19:18 | 49.44468 | 15.83592 | 33958 ft | 425 kts | 297° |
| 2026-05-05 19:19 | 49.45857 | 15.79609 | 33222 ft | 426 kts | 297° |
| 2026-05-05 19:19 | 49.47252 | 15.75601 | 32475 ft | 427 kts | 297° |
| 2026-05-05 19:19 | 49.48639 | 15.71598 | 31945 ft | 423 kts | 296° |
| 2026-05-05 19:19 | 49.50018 | 15.67596 | 31391 ft | 419 kts | 296° |
| 2026-05-05 19:20 | 49.51367 | 15.63661 | 30840 ft | 416 kts | 296° |
| 2026-05-05 19:20 | 49.52691 | 15.59772 | 30293 ft | 413 kts | 296° |
| 2026-05-05 19:20 | 49.54013 | 15.55872 | 29735 ft | 410 kts | 296° |
| 2026-05-05 19:20 | 49.55328 | 15.51981 | 29179 ft | 408 kts | 295° |
| 2026-05-05 19:21 | 49.56616 | 15.48156 | 28629 ft | 405 kts | 295° |
| 2026-05-05 19:21 | 49.57869 | 15.44431 | 28091 ft | 403 kts | 295° |
| 2026-05-05 19:21 | 49.59158 | 15.40587 | 27537 ft | 401 kts | 295° |
| 2026-05-05 19:21 | 49.60440 | 15.36760 | 26977 ft | 399 kts | 295° |
| 2026-05-05 19:22 | 49.61700 | 15.32992 | 26437 ft | 397 kts | 294° |
| 2026-05-05 19:22 | 49.62959 | 15.29221 | 25897 ft | 395 kts | 294° |
| 2026-05-05 19:22 | 49.64203 | 15.25491 | 25349 ft | 393 kts | 294° |
| 2026-05-05 19:22 | 49.65453 | 15.21738 | 24784 ft | 392 kts | 294° |
| 2026-05-05 19:23 | 49.66682 | 15.18038 | 24244 ft | 390 kts | 294° |
| 2026-05-05 19:23 | 49.67928 | 15.14284 | 23697 ft | 389 kts | 294° |
| 2026-05-05 19:23 | 49.69177 | 15.10655 | 23155 ft | 388 kts | 296° |
| 2026-05-05 19:23 | 49.70640 | 15.07122 | 22590 ft | 389 kts | 304° |
| 2026-05-05 19:24 | 49.72409 | 15.03985 | 22044 ft | 390 kts | 312° |
| 2026-05-05 19:24 | 49.74394 | 15.01101 | 21495 ft | 390 kts | 316° |
| 2026-05-05 19:24 | 49.76427 | 14.98395 | 20943 ft | 390 kts | 317° |
| 2026-05-05 19:24 | 49.78524 | 14.95689 | 20387 ft | 389 kts | 317° |
| 2026-05-05 19:25 | 49.80573 | 14.93057 | 19839 ft | 387 kts | 318° |
| 2026-05-05 19:25 | 49.82653 | 14.90368 | 19283 ft | 386 kts | 317° |
| 2026-05-05 19:25 | 49.84681 | 14.87726 | 18739 ft | 385 kts | 317° |
| 2026-05-05 19:25 | 49.86727 | 14.85039 | 18192 ft | 383 kts | 317° |
| 2026-05-05 19:26 | 49.88736 | 14.82384 | 17656 ft | 381 kts | 317° |
| 2026-05-05 19:26 | 49.90744 | 14.79714 | 17104 ft | 380 kts | 317° |
| 2026-05-05 19:26 | 49.92755 | 14.77027 | 16529 ft | 379 kts | 317° |
| 2026-05-05 19:26 | 49.94748 | 14.74356 | 16001 ft | 377 kts | 317° |
| 2026-05-05 19:27 | 49.96715 | 14.71715 | 15447 ft | 376 kts | 317° |
| 2026-05-05 19:27 | 49.98693 | 14.69056 | 14865 ft | 375 kts | 317° |
| 2026-05-05 19:27 | 50.00602 | 14.66388 | 14327 ft | 372 kts | 314° |
| 2026-05-05 19:27 | 50.02368 | 14.63461 | 13788 ft | 369 kts | 308° |
| 2026-05-05 19:28 | 50.03969 | 14.60391 | 13253 ft | 366 kts | 305° |
| 2026-05-05 19:28 | 50.05509 | 14.57215 | 12709 ft | 364 kts | 304° |
| 2026-05-05 19:28 | 50.06999 | 14.54068 | 12177 ft | 363 kts | 304° |
| 2026-05-05 19:28 | 50.08477 | 14.50949 | 11615 ft | 354 kts | 304° |
| 2026-05-05 19:29 | 50.09916 | 14.47940 | 11128 ft | 340 kts | 304° |
| 2026-05-05 19:29 | 50.11285 | 14.45098 | 10649 ft | 328 kts | 304° |
| 2026-05-05 19:29 | 50.12648 | 14.42279 | 10225 ft | 324 kts | 304° |
| 2026-05-05 19:29 | 50.13989 | 14.39511 | 10008 ft | 314 kts | 304° |
| 2026-05-05 19:30 | 50.15276 | 14.36858 | 9909 ft | 301 kts | 304° |
| 2026-05-05 19:30 | 50.16519 | 14.34292 | 9680 ft | 293 kts | 303° |
| 2026-05-05 19:30 | 50.17753 | 14.31736 | 9279 ft | 293 kts | 304° |
| 2026-05-05 19:30 | 50.18962 | 14.29224 | 8909 ft | 291 kts | 304° |
| 2026-05-05 19:31 | 50.20177 | 14.26701 | 8545 ft | 289 kts | 304° |
| 2026-05-05 19:31 | 50.21381 | 14.24202 | 8184 ft | 287 kts | 304° |
| 2026-05-05 19:31 | 50.22571 | 14.21729 | 7823 ft | 286 kts | 305° |
| 2026-05-05 19:31 | 50.23772 | 14.19236 | 7459 ft | 284 kts | 305° |
| 2026-05-05 19:32 | 50.24941 | 14.16805 | 7109 ft | 282 kts | 305° |
| 2026-05-05 19:32 | 50.26119 | 14.14350 | 6760 ft | 281 kts | 306° |
| 2026-05-05 19:32 | 50.27285 | 14.11919 | 6400 ft | 280 kts | 305° |
| 2026-05-05 19:32 | 50.28455 | 14.09482 | 6014 ft | 279 kts | 304° |
| 2026-05-05 19:33 | 50.29403 | 14.06904 | 5790 ft | 271 kts | 290° |
| 2026-05-05 19:33 | 50.29653 | 14.04073 | 5654 ft | 260 kts | 260° |
| 2026-05-05 19:33 | 50.28970 | 14.01564 | 5610 ft | 245 kts | 232° |
| 2026-05-05 19:33 | 50.27797 | 13.99708 | 5419 ft | 242 kts | 218° |
| 2026-05-05 19:34 | 50.26373 | 13.98312 | 5147 ft | 240 kts | 201° |
| 2026-05-05 19:34 | 50.24751 | 13.97979 | 4911 ft | 235 kts | 169° |
| 2026-05-05 19:34 | 50.23301 | 13.98987 | 4760 ft | 224 kts | 141° |
| 2026-05-05 19:35 | 50.21395 | 14.02507 | 4367 ft | 204 kts | 123° |
| 2026-05-05 19:35 | 50.20612 | 14.04207 | 4201 ft | 187 kts | 125° |
| 2026-05-05 19:35 | 50.19840 | 14.05813 | 4106 ft | 189 kts | 125° |
| 2026-05-05 19:35 | 50.19047 | 14.07461 | 3873 ft | 190 kts | 124° |
| 2026-05-05 19:36 | 50.18265 | 14.09084 | 3567 ft | 182 kts | 124° |
| 2026-05-05 19:36 | 50.17516 | 14.10644 | 3350 ft | 182 kts | 124° |
| 2026-05-05 19:36 | 50.16752 | 14.12230 | 3102 ft | 181 kts | 123° |
| 2026-05-05 19:36 | 50.15999 | 14.13793 | 2861 ft | 177 kts | 124° |
| 2026-05-05 19:37 | 50.15264 | 14.15315 | 2622 ft | 174 kts | 124° |
| 2026-05-05 19:37 | 50.14541 | 14.16813 | 2390 ft | 170 kts | 124° |
| 2026-05-05 19:37 | 50.13855 | 14.18231 | 2209 ft | 162 kts | 124° |
| 2026-05-05 19:37 | 50.13186 | 14.19618 | 1944 ft | 156 kts | 124° |
| 2026-05-05 19:38 | 50.12533 | 14.20969 | 1758 ft | 155 kts | 124° |
| 2026-05-05 19:38 | 50.11892 | 14.22300 | 1593 ft | 152 kts | 124° |
| 2026-05-05 19:38 | 50.11248 | 14.23618 | 1365 ft | 156 kts | 125° |
| 2026-05-05 19:38 | 50.10603 | 14.24948 | 1202 ft | 154 kts | 124° |
| 2026-05-05 19:39 | 50.10038 | 14.26123 | 1200 ft | 100 kts | 126° |
| 2026-05-05 19:39 | 50.09769 | 14.26674 | 1213 ft | 30 kts | 127° |
| 2026-05-05 19:39 | 50.09647 | 14.26937 | 1216 ft | 30 kts | 125° |
| 2026-05-05 19:39 | 50.09502 | 14.27224 | 1219 ft | 38 kts | 126° |
| 2026-05-05 19:40 | 50.09480 | 14.27488 | 1218 ft | 24 kts | 42° |
| 2026-05-05 19:40 | 50.09634 | 14.27673 | 1210 ft | 31 kts | 38° |
| 2026-05-05 19:40 | 50.09716 | 14.27971 | 1205 ft | 30 kts | 78° |
| 2026-05-05 19:40 | 50.09758 | 14.28295 | 1203 ft | 30 kts | 78° |
| 2026-05-05 19:41 | 50.09808 | 14.28592 | 1201 ft | 18 kts | 79° |
| 2026-05-05 19:41 | 50.09816 | 14.28661 | 1202 ft | 4 kts | 79° |
| 2026-05-05 19:41 | 50.09812 | 14.28623 | 1201 ft | 2 kts | 79° |
| 2026-05-05 19:41 | 50.09806 | 14.28579 | 1201 ft | 0 kts | 78° |